sensor_id;sensor_type;location;lat;lon;timestamp;temperature;humidity
44277;DHT22;29973;43.742;1.236;2023-04-08T00:01:06;4.90;99.90
44277;DHT22;29973;43.742;1.236;2023-04-08T00:03:32;4.90;99.90
44277;DHT22;29973;43.742;1.236;2023-04-08T00:05:57;4.90;99.90
44277;DHT22;29973;43.742;1.236;2023-04-08T00:08:25;4.90;99.90
44277;DHT22;29973;43.742;1.236;2023-04-08T00:10:50;4.90;99.90
44277;DHT22;29973;43.742;1.236;2023-04-08T00:13:16;4.70;99.90
44277;DHT22;29973;43.742;1.236;2023-04-08T00:15:42;4.50;99.90
44277;DHT22;29973;43.742;1.236;2023-04-08T00:18:07;4.60;99.90
44277;DHT22;29973;43.742;1.236;2023-04-08T00:20:33;4.50;99.90
44277;DHT22;29973;43.742;1.236;2023-04-08T00:22:59;4.50;99.90
44277;DHT22;29973;43.742;1.236;2023-04-08T00:25:24;4.60;99.90
44277;DHT22;29973;43.742;1.236;2023-04-08T00:27:50;4.60;99.90
44277;DHT22;29973;43.742;1.236;2023-04-08T00:30:16;4.60;99.90
44277;DHT22;29973;43.742;1.236;2023-04-08T00:32:42;4.50;99.90
44277;DHT22;29973;43.742;1.236;2023-04-08T00:35:08;4.40;99.90
44277;DHT22;29973;43.742;1.236;2023-04-08T00:37:34;4.50;99.90
44277;DHT22;29973;43.742;1.236;2023-04-08T00:39:59;4.50;99.90
44277;DHT22;29973;43.742;1.236;2023-04-08T00:42:25;4.60;99.90
44277;DHT22;29973;43.742;1.236;2023-04-08T00:44:51;4.60;99.90
44277;DHT22;29973;43.742;1.236;2023-04-08T00:47:17;4.70;99.90
44277;DHT22;29973;43.742;1.236;2023-04-08T00:49:43;4.70;99.90
44277;DHT22;29973;43.742;1.236;2023-04-08T00:52:09;4.40;99.90
44277;DHT22;29973;43.742;1.236;2023-04-08T00:54:36;4.20;99.90
44277;DHT22;29973;43.742;1.236;2023-04-08T00:57:02;4.20;99.90
44277;DHT22;29973;43.742;1.236;2023-04-08T00:59:29;4.10;99.90
44277;DHT22;29973;43.742;1.236;2023-04-08T01:07:19;4.30;99.90
44277;DHT22;29973;43.742;1.236;2023-04-08T01:09:49;4.40;99.90
44277;DHT22;29973;43.742;1.236;2023-04-08T01:12:26;4.40;99.90
44277;DHT22;29973;43.742;1.236;2023-04-08T01:15:07;4.30;99.90
44277;DHT22;29973;43.742;1.236;2023-04-08T01:17:33;4.20;99.90
44277;DHT22;29973;43.742;1.236;2023-04-08T01:20:02;4.10;99.90
44277;DHT22;29973;43.742;1.236;2023-04-08T01:25:25;4.30;99.90
44277;DHT22;29973;43.742;1.236;2023-04-08T01:27:52;4.30;99.90
44277;DHT22;29973;43.742;1.236;2023-04-08T01:30:23;4.30;99.90
44277;DHT22;29973;43.742;1.236;2023-04-08T01:32:51;4.40;99.90
44277;DHT22;29973;43.742;1.236;2023-04-08T01:35:18;4.50;99.90
44277;DHT22;29973;43.742;1.236;2023-04-08T01:37:44;4.30;99.90
44277;DHT22;29973;43.742;1.236;2023-04-08T01:40:11;4.40;99.90
44277;DHT22;29973;43.742;1.236;2023-04-08T01:42:38;4.40;99.90
44277;DHT22;29973;43.742;1.236;2023-04-08T01:45:05;4.30;99.90
44277;DHT22;29973;43.742;1.236;2023-04-08T01:47:32;4.40;99.90
44277;DHT22;29973;43.742;1.236;2023-04-08T01:49:58;4.40;99.90
44277;DHT22;29973;43.742;1.236;2023-04-08T01:52:26;4.40;99.90
44277;DHT22;29973;43.742;1.236;2023-04-08T01:54:53;4.20;99.90
44277;DHT22;29973;43.742;1.236;2023-04-08T01:57:23;4.20;99.90
44277;DHT22;29973;43.742;1.236;2023-04-08T01:59:51;4.20;99.90
44277;DHT22;29973;43.742;1.236;2023-04-08T02:02:19;4.10;99.90
44277;DHT22;29973;43.742;1.236;2023-04-08T02:04:47;4.10;99.90
44277;DHT22;29973;43.742;1.236;2023-04-08T02:07:13;4.10;99.90
44277;DHT22;29973;43.742;1.236;2023-04-08T02:09:38;3.90;99.90
44277;DHT22;29973;43.742;1.236;2023-04-08T02:12:05;3.80;99.90
44277;DHT22;29973;43.742;1.236;2023-04-08T02:14:30;3.80;99.90
44277;DHT22;29973;43.742;1.236;2023-04-08T02:17:09;3.80;99.90
44277;DHT22;29973;43.742;1.236;2023-04-08T02:19:51;3.80;99.90
44277;DHT22;29973;43.742;1.236;2023-04-08T02:22:28;3.50;99.90
44277;DHT22;29973;43.742;1.236;2023-04-08T02:24:55;3.50;99.90
44277;DHT22;29973;43.742;1.236;2023-04-08T02:27:23;3.40;99.90
44277;DHT22;29973;43.742;1.236;2023-04-08T02:29:50;3.30;99.90
44277;DHT22;29973;43.742;1.236;2023-04-08T02:32:20;3.20;99.90
44277;DHT22;29973;43.742;1.236;2023-04-08T02:34:49;3.20;99.90
44277;DHT22;29973;43.742;1.236;2023-04-08T02:37:15;3.30;99.90
44277;DHT22;29973;43.742;1.236;2023-04-08T02:39:41;3.50;99.90
44277;DHT22;29973;43.742;1.236;2023-04-08T02:42:07;3.50;99.90
44277;DHT22;29973;43.742;1.236;2023-04-08T02:44:32;3.40;99.90
44277;DHT22;29973;43.742;1.236;2023-04-08T02:46:58;3.30;99.90
44277;DHT22;29973;43.742;1.236;2023-04-08T02:49:24;3.20;99.90
44277;DHT22;29973;43.742;1.236;2023-04-08T02:51:49;3.20;99.90
44277;DHT22;29973;43.742;1.236;2023-04-08T02:54:15;3.40;99.90
44277;DHT22;29973;43.742;1.236;2023-04-08T02:56:40;3.20;99.90
44277;DHT22;29973;43.742;1.236;2023-04-08T02:59:06;3.30;99.90
44277;DHT22;29973;43.742;1.236;2023-04-08T03:01:32;3.30;99.90
44277;DHT22;29973;43.742;1.236;2023-04-08T03:03:58;3.30;99.90
44277;DHT22;29973;43.742;1.236;2023-04-08T03:06:23;3.30;99.90
44277;DHT22;29973;43.742;1.236;2023-04-08T03:08:49;3.40;99.90
44277;DHT22;29973;43.742;1.236;2023-04-08T03:11:15;3.50;99.90
44277;DHT22;29973;43.742;1.236;2023-04-08T03:13:40;3.30;99.90
44277;DHT22;29973;43.742;1.236;2023-04-08T03:16:06;3.30;99.90
44277;DHT22;29973;43.742;1.236;2023-04-08T03:18:32;3.10;99.90
44277;DHT22;29973;43.742;1.236;2023-04-08T03:20:58;3.10;99.90
44277;DHT22;29973;43.742;1.236;2023-04-08T03:23:23;2.90;99.90
44277;DHT22;29973;43.742;1.236;2023-04-08T03:25:49;2.70;99.90
44277;DHT22;29973;43.742;1.236;2023-04-08T03:28:15;2.70;99.90
44277;DHT22;29973;43.742;1.236;2023-04-08T03:30:41;2.50;99.90
44277;DHT22;29973;43.742;1.236;2023-04-08T03:33:06;2.50;99.90
44277;DHT22;29973;43.742;1.236;2023-04-08T03:35:33;2.50;99.90
44277;DHT22;29973;43.742;1.236;2023-04-08T03:37:59;2.60;99.90
44277;DHT22;29973;43.742;1.236;2023-04-08T03:40:24;2.70;99.90
44277;DHT22;29973;43.742;1.236;2023-04-08T03:42:50;2.60;99.90
44277;DHT22;29973;43.742;1.236;2023-04-08T03:45:16;2.40;99.90
44277;DHT22;29973;43.742;1.236;2023-04-08T03:47:41;2.40;99.90
44277;DHT22;29973;43.742;1.236;2023-04-08T03:50:07;2.50;99.90
44277;DHT22;29973;43.742;1.236;2023-04-08T03:52:33;2.50;99.90
44277;DHT22;29973;43.742;1.236;2023-04-08T03:54:59;2.50;99.90
44277;DHT22;29973;43.742;1.236;2023-04-08T03:57:24;2.50;99.90
44277;DHT22;29973;43.742;1.236;2023-04-08T03:59:50;2.40;99.90
44277;DHT22;29973;43.742;1.236;2023-04-08T04:02:16;2.20;99.90
44277;DHT22;29973;43.742;1.236;2023-04-08T04:04:41;2.10;99.90
44277;DHT22;29973;43.742;1.236;2023-04-08T04:07:07;2.10;99.90
44277;DHT22;29973;43.742;1.236;2023-04-08T04:09:33;2.10;99.90
44277;DHT22;29973;43.742;1.236;2023-04-08T04:11:59;2.20;99.90
44277;DHT22;29973;43.742;1.236;2023-04-08T04:14:25;2.20;99.90
44277;DHT22;29973;43.742;1.236;2023-04-08T04:16:50;2.10;99.90
44277;DHT22;29973;43.742;1.236;2023-04-08T04:19:16;2.10;99.90
44277;DHT22;29973;43.742;1.236;2023-04-08T04:21:43;2.00;99.90
44277;DHT22;29973;43.742;1.236;2023-04-08T04:24:08;2.00;99.90
44277;DHT22;29973;43.742;1.236;2023-04-08T04:26:34;2.10;99.90
44277;DHT22;29973;43.742;1.236;2023-04-08T04:29:00;2.10;99.90
44277;DHT22;29973;43.742;1.236;2023-04-08T04:31:25;2.00;99.90
44277;DHT22;29973;43.742;1.236;2023-04-08T04:33:51;2.00;99.90
44277;DHT22;29973;43.742;1.236;2023-04-08T04:36:17;2.00;99.90
44277;DHT22;29973;43.742;1.236;2023-04-08T04:38:44;2.10;99.90
44277;DHT22;29973;43.742;1.236;2023-04-08T04:41:10;2.20;99.90
44277;DHT22;29973;43.742;1.236;2023-04-08T04:43:36;2.10;99.90
44277;DHT22;29973;43.742;1.236;2023-04-08T04:46:02;2.00;99.90
44277;DHT22;29973;43.742;1.236;2023-04-08T04:48:32;1.70;99.90
44277;DHT22;29973;43.742;1.236;2023-04-08T04:50:59;1.70;99.90
44277;DHT22;29973;43.742;1.236;2023-04-08T04:53:25;1.70;99.90
44277;DHT22;29973;43.742;1.236;2023-04-08T04:55:51;1.80;99.90
44277;DHT22;29973;43.742;1.236;2023-04-08T04:58:17;1.80;99.90
44277;DHT22;29973;43.742;1.236;2023-04-08T05:00:44;1.90;99.90
44277;DHT22;29973;43.742;1.236;2023-04-08T05:03:10;1.90;99.90
44277;DHT22;29973;43.742;1.236;2023-04-08T05:05:36;1.80;99.90
44277;DHT22;29973;43.742;1.236;2023-04-08T05:08:02;1.90;99.90
44277;DHT22;29973;43.742;1.236;2023-04-08T05:10:27;1.90;99.90
44277;DHT22;29973;43.742;1.236;2023-04-08T05:12:53;1.90;99.90
44277;DHT22;29973;43.742;1.236;2023-04-08T05:15:19;1.80;99.90
44277;DHT22;29973;43.742;1.236;2023-04-08T05:17:45;1.60;99.90
44277;DHT22;29973;43.742;1.236;2023-04-08T05:20:11;1.40;99.90
44277;DHT22;29973;43.742;1.236;2023-04-08T05:22:37;1.40;99.90
44277;DHT22;29973;43.742;1.236;2023-04-08T05:25:03;1.40;99.90
44277;DHT22;29973;43.742;1.236;2023-04-08T05:27:29;1.50;99.90
44277;DHT22;29973;43.742;1.236;2023-04-08T05:29:55;1.40;99.90
44277;DHT22;29973;43.742;1.236;2023-04-08T05:32:20;1.50;99.90
44277;DHT22;29973;43.742;1.236;2023-04-08T05:34:46;1.50;99.90
44277;DHT22;29973;43.742;1.236;2023-04-08T05:37:11;1.70;99.90
44277;DHT22;29973;43.742;1.236;2023-04-08T05:39:37;1.80;99.90
44277;DHT22;29973;43.742;1.236;2023-04-08T05:42:03;1.90;99.90
44277;DHT22;29973;43.742;1.236;2023-04-08T05:44:29;1.90;99.90
44277;DHT22;29973;43.742;1.236;2023-04-08T05:46:54;1.90;99.90
44277;DHT22;29973;43.742;1.236;2023-04-08T05:49:23;2.00;99.90
44277;DHT22;29973;43.742;1.236;2023-04-08T05:51:49;2.00;99.90
44277;DHT22;29973;43.742;1.236;2023-04-08T05:54:15;2.00;99.90
44277;DHT22;29973;43.742;1.236;2023-04-08T05:56:40;2.10;99.90
44277;DHT22;29973;43.742;1.236;2023-04-08T05:59:06;2.30;99.90
44277;DHT22;29973;43.742;1.236;2023-04-08T06:01:31;2.40;99.90
44277;DHT22;29973;43.742;1.236;2023-04-08T06:03:57;2.50;99.90
44277;DHT22;29973;43.742;1.236;2023-04-08T06:06:23;2.60;99.90
44277;DHT22;29973;43.742;1.236;2023-04-08T06:08:50;2.70;99.90
44277;DHT22;29973;43.742;1.236;2023-04-08T06:11:16;2.90;99.90
44277;DHT22;29973;43.742;1.236;2023-04-08T06:13:41;2.90;99.90
44277;DHT22;29973;43.742;1.236;2023-04-08T06:16:14;3.00;99.90
44277;DHT22;29973;43.742;1.236;2023-04-08T06:18:41;3.00;99.90
44277;DHT22;29973;43.742;1.236;2023-04-08T06:21:07;3.00;99.90
44277;DHT22;29973;43.742;1.236;2023-04-08T06:23:33;3.00;99.90
44277;DHT22;29973;43.742;1.236;2023-04-08T06:25:59;3.20;99.90
44277;DHT22;29973;43.742;1.236;2023-04-08T06:28:24;3.30;99.90
44277;DHT22;29973;43.742;1.236;2023-04-08T06:30:50;3.40;99.90
44277;DHT22;29973;43.742;1.236;2023-04-08T06:33:16;3.60;99.90
44277;DHT22;29973;43.742;1.236;2023-04-08T06:35:41;3.90;99.90
44277;DHT22;29973;43.742;1.236;2023-04-08T06:38:07;4.00;99.90
44277;DHT22;29973;43.742;1.236;2023-04-08T06:40:33;4.20;99.90
44277;DHT22;29973;43.742;1.236;2023-04-08T06:42:59;4.30;99.90
44277;DHT22;29973;43.742;1.236;2023-04-08T06:45:24;4.50;99.90
44277;DHT22;29973;43.742;1.236;2023-04-08T06:47:50;4.80;99.90
44277;DHT22;29973;43.742;1.236;2023-04-08T06:50:17;5.10;99.90
44277;DHT22;29973;43.742;1.236;2023-04-08T06:52:42;5.40;99.90
44277;DHT22;29973;43.742;1.236;2023-04-08T06:55:08;5.60;99.90
44277;DHT22;29973;43.742;1.236;2023-04-08T06:57:34;5.90;99.90
44277;DHT22;29973;43.742;1.236;2023-04-08T06:59:59;6.20;99.90
44277;DHT22;29973;43.742;1.236;2023-04-08T07:02:25;6.40;99.90
44277;DHT22;29973;43.742;1.236;2023-04-08T07:04:51;6.70;99.90
44277;DHT22;29973;43.742;1.236;2023-04-08T07:07:17;7.00;99.90
44277;DHT22;29973;43.742;1.236;2023-04-08T07:09:42;7.10;99.90
44277;DHT22;29973;43.742;1.236;2023-04-08T07:12:11;7.20;99.90
44277;DHT22;29973;43.742;1.236;2023-04-08T07:14:36;7.50;99.90
44277;DHT22;29973;43.742;1.236;2023-04-08T07:17:02;7.50;99.90
44277;DHT22;29973;43.742;1.236;2023-04-08T07:19:28;7.70;99.90
44277;DHT22;29973;43.742;1.236;2023-04-08T07:21:53;7.90;99.90
44277;DHT22;29973;43.742;1.236;2023-04-08T07:24:19;8.10;99.90
44277;DHT22;29973;43.742;1.236;2023-04-08T07:26:45;8.20;99.90
44277;DHT22;29973;43.742;1.236;2023-04-08T07:29:11;8.20;99.90
44277;DHT22;29973;43.742;1.236;2023-04-08T07:31:36;8.20;99.90
44277;DHT22;29973;43.742;1.236;2023-04-08T07:34:02;8.40;99.90
44277;DHT22;29973;43.742;1.236;2023-04-08T07:36:28;8.60;99.90
44277;DHT22;29973;43.742;1.236;2023-04-08T07:39:07;8.70;99.90
44277;DHT22;29973;43.742;1.236;2023-04-08T07:41:33;8.80;99.90
44277;DHT22;29973;43.742;1.236;2023-04-08T07:43:58;8.80;99.90
44277;DHT22;29973;43.742;1.236;2023-04-08T07:46:24;8.90;99.90
44277;DHT22;29973;43.742;1.236;2023-04-08T07:48:50;9.20;99.90
44277;DHT22;29973;43.742;1.236;2023-04-08T07:51:16;9.40;99.90
44277;DHT22;29973;43.742;1.236;2023-04-08T07:53:42;9.60;99.90
44277;DHT22;29973;43.742;1.236;2023-04-08T07:56:13;9.80;99.90
44277;DHT22;29973;43.742;1.236;2023-04-08T07:58:39;10.00;99.90
44277;DHT22;29973;43.742;1.236;2023-04-08T08:01:19;10.20;99.90
44277;DHT22;29973;43.742;1.236;2023-04-08T08:03:46;10.00;99.90
44277;DHT22;29973;43.742;1.236;2023-04-08T08:06:12;10.10;99.90
44277;DHT22;29973;43.742;1.236;2023-04-08T08:08:38;10.30;99.90
44277;DHT22;29973;43.742;1.236;2023-04-08T08:11:03;10.50;99.90
44277;DHT22;29973;43.742;1.236;2023-04-08T08:13:29;10.50;99.90
44277;DHT22;29973;43.742;1.236;2023-04-08T08:15:55;10.60;99.90
44277;DHT22;29973;43.742;1.236;2023-04-08T08:18:21;10.80;99.90
44277;DHT22;29973;43.742;1.236;2023-04-08T08:20:47;10.90;99.90
44277;DHT22;29973;43.742;1.236;2023-04-08T08:23:13;10.80;99.90
44277;DHT22;29973;43.742;1.236;2023-04-08T08:25:38;10.80;99.90
44277;DHT22;29973;43.742;1.236;2023-04-08T08:28:04;11.10;99.90
44277;DHT22;29973;43.742;1.236;2023-04-08T08:30:30;11.10;99.90
44277;DHT22;29973;43.742;1.236;2023-04-08T08:32:55;11.30;99.90
44277;DHT22;29973;43.742;1.236;2023-04-08T08:35:23;11.40;99.90
44277;DHT22;29973;43.742;1.236;2023-04-08T08:37:49;11.50;99.90
44277;DHT22;29973;43.742;1.236;2023-04-08T08:40:15;11.80;99.90
44277;DHT22;29973;43.742;1.236;2023-04-08T08:42:41;12.00;99.90
44277;DHT22;29973;43.742;1.236;2023-04-08T08:45:07;12.00;99.90
44277;DHT22;29973;43.742;1.236;2023-04-08T08:47:33;12.20;99.90
44277;DHT22;29973;43.742;1.236;2023-04-08T08:49:59;12.20;99.90
44277;DHT22;29973;43.742;1.236;2023-04-08T08:52:25;12.40;99.90
44277;DHT22;29973;43.742;1.236;2023-04-08T08:54:58;12.60;99.90
44277;DHT22;29973;43.742;1.236;2023-04-08T08:57:24;12.80;99.90
44277;DHT22;29973;43.742;1.236;2023-04-08T08:59:49;12.70;99.90
44277;DHT22;29973;43.742;1.236;2023-04-08T09:02:30;12.70;99.90
44277;DHT22;29973;43.742;1.236;2023-04-08T09:05:01;12.60;99.90
44277;DHT22;29973;43.742;1.236;2023-04-08T09:07:28;13.30;99.90
44277;DHT22;29973;43.742;1.236;2023-04-08T09:09:56;13.50;99.90
44277;DHT22;29973;43.742;1.236;2023-04-08T09:12:23;13.70;99.90
44277;DHT22;29973;43.742;1.236;2023-04-08T09:14:50;14.00;99.90
44277;DHT22;29973;43.742;1.236;2023-04-08T09:17:30;14.00;99.90
44277;DHT22;29973;43.742;1.236;2023-04-08T09:20:12;14.20;99.90
44277;DHT22;29973;43.742;1.236;2023-04-08T09:23:01;14.30;99.90
44277;DHT22;29973;43.742;1.236;2023-04-08T09:25:31;14.40;99.90
44277;DHT22;29973;43.742;1.236;2023-04-08T09:27:57;14.50;99.90
44277;DHT22;29973;43.742;1.236;2023-04-08T09:30:25;14.50;99.90
44277;DHT22;29973;43.742;1.236;2023-04-08T09:32:53;14.60;99.90
44277;DHT22;29973;43.742;1.236;2023-04-08T09:35:19;15.00;99.90
44277;DHT22;29973;43.742;1.236;2023-04-08T09:37:46;14.90;99.90
44277;DHT22;29973;43.742;1.236;2023-04-08T09:40:13;14.90;99.90
44277;DHT22;29973;43.742;1.236;2023-04-08T09:42:47;14.90;99.90
44277;DHT22;29973;43.742;1.236;2023-04-08T09:45:16;15.20;99.90
44277;DHT22;29973;43.742;1.236;2023-04-08T09:50:31;15.30;99.90
44277;DHT22;29973;43.742;1.236;2023-04-08T09:53:09;15.40;99.90
44277;DHT22;29973;43.742;1.236;2023-04-08T09:55:39;15.60;99.90
44277;DHT22;29973;43.742;1.236;2023-04-08T09:58:15;15.70;99.50
44277;DHT22;29973;43.742;1.236;2023-04-08T10:00:46;15.80;99.90
44277;DHT22;29973;43.742;1.236;2023-04-08T10:03:32;15.90;99.90
44277;DHT22;29973;43.742;1.236;2023-04-08T10:06:02;15.70;99.10
44277;DHT22;29973;43.742;1.236;2023-04-08T10:08:29;16.10;99.90
44277;DHT22;29973;43.742;1.236;2023-04-08T10:10:56;16.40;99.30
44277;DHT22;29973;43.742;1.236;2023-04-08T10:13:22;16.50;99.90
44277;DHT22;29973;43.742;1.236;2023-04-08T10:15:49;16.40;98.20
44277;DHT22;29973;43.742;1.236;2023-04-08T10:20:46;16.30;98.20
44277;DHT22;29973;43.742;1.236;2023-04-08T10:23:16;16.20;97.80
44277;DHT22;29973;43.742;1.236;2023-04-08T10:25:46;16.70;97.50
44277;DHT22;29973;43.742;1.236;2023-04-08T10:38:24;17.50;97.50
44277;DHT22;29973;43.742;1.236;2023-04-08T10:40:50;17.70;96.90
44277;DHT22;29973;43.742;1.236;2023-04-08T10:43:17;17.20;90.90
44277;DHT22;29973;43.742;1.236;2023-04-08T10:45:43;17.20;96.70
44277;DHT22;29973;43.742;1.236;2023-04-08T10:48:23;18.30;93.80
44277;DHT22;29973;43.742;1.236;2023-04-08T10:51:00;20.10;84.10
44277;DHT22;29973;43.742;1.236;2023-04-08T10:53:37;21.00;78.80
44277;DHT22;29973;43.742;1.236;2023-04-08T10:56:10;22.70;72.80
44277;DHT22;29973;43.742;1.236;2023-04-08T10:58:47;21.90;69.70
44277;DHT22;29973;43.742;1.236;2023-04-08T11:01:13;22.30;68.10
44277;DHT22;29973;43.742;1.236;2023-04-08T11:03:41;23.70;63.30
44277;DHT22;29973;43.742;1.236;2023-04-08T11:06:07;23.30;63.20
44277;DHT22;29973;43.742;1.236;2023-04-08T11:08:34;25.00;67.90
44277;DHT22;29973;43.742;1.236;2023-04-08T11:11:01;24.10;63.60
44277;DHT22;29973;43.742;1.236;2023-04-08T11:13:28;24.30;60.00
44277;DHT22;29973;43.742;1.236;2023-04-08T11:15:55;25.00;57.30
44277;DHT22;29973;43.742;1.236;2023-04-08T11:18:22;24.80;56.20
44277;DHT22;29973;43.742;1.236;2023-04-08T11:20:52;24.80;53.50
44277;DHT22;29973;43.742;1.236;2023-04-08T11:23:18;26.00;56.20
44277;DHT22;29973;43.742;1.236;2023-04-08T11:25:45;24.90;52.10
44277;DHT22;29973;43.742;1.236;2023-04-08T11:28:14;25.10;51.00
44277;DHT22;29973;43.742;1.236;2023-04-08T11:30:40;26.20;49.00
44277;DHT22;29973;43.742;1.236;2023-04-08T11:33:06;26.90;51.90
44277;DHT22;29973;43.742;1.236;2023-04-08T11:35:33;27.10;48.10
44277;DHT22;29973;43.742;1.236;2023-04-08T11:37:58;26.50;51.00
44277;DHT22;29973;43.742;1.236;2023-04-08T11:40:25;26.20;48.50
44277;DHT22;29973;43.742;1.236;2023-04-08T11:42:51;26.30;47.50
44277;DHT22;29973;43.742;1.236;2023-04-08T11:45:20;27.40;48.00
44277;DHT22;29973;43.742;1.236;2023-04-08T11:47:47;26.90;45.60
44277;DHT22;29973;43.742;1.236;2023-04-08T11:50:24;27.10;43.80
44277;DHT22;29973;43.742;1.236;2023-04-08T11:52:51;27.30;44.10
44277;DHT22;29973;43.742;1.236;2023-04-08T11:55:31;28.00;41.50
44277;DHT22;29973;43.742;1.236;2023-04-08T11:58:02;27.60;41.00
44277;DHT22;29973;43.742;1.236;2023-04-08T12:00:28;28.50;43.10
44277;DHT22;29973;43.742;1.236;2023-04-08T12:02:54;27.00;39.00
44277;DHT22;29973;43.742;1.236;2023-04-08T12:05:20;28.50;39.20
44277;DHT22;29973;43.742;1.236;2023-04-08T12:07:46;28.20;39.60
44277;DHT22;29973;43.742;1.236;2023-04-08T12:10:12;28.20;36.30
44277;DHT22;29973;43.742;1.236;2023-04-08T12:12:38;27.30;34.40
44277;DHT22;29973;43.742;1.236;2023-04-08T12:15:05;28.00;35.40
44277;DHT22;29973;43.742;1.236;2023-04-08T12:17:31;28.50;32.10
44277;DHT22;29973;43.742;1.236;2023-04-08T12:19:57;28.80;29.50
44277;DHT22;29973;43.742;1.236;2023-04-08T12:22:23;26.20;33.90
44277;DHT22;29973;43.742;1.236;2023-04-08T12:24:48;26.70;36.50
44277;DHT22;29973;43.742;1.236;2023-04-08T12:27:14;27.30;30.70
44277;DHT22;29973;43.742;1.236;2023-04-08T12:29:40;26.50;34.60
44277;DHT22;29973;43.742;1.236;2023-04-08T12:32:06;27.50;34.70
44277;DHT22;29973;43.742;1.236;2023-04-08T12:34:32;28.20;35.20
44277;DHT22;29973;43.742;1.236;2023-04-08T12:36:58;28.50;29.40
44277;DHT22;29973;43.742;1.236;2023-04-08T12:39:24;28.10;33.30
44277;DHT22;29973;43.742;1.236;2023-04-08T12:41:50;27.50;31.80
44277;DHT22;29973;43.742;1.236;2023-04-08T12:44:15;28.50;30.50
44277;DHT22;29973;43.742;1.236;2023-04-08T12:46:41;27.20;29.10
44277;DHT22;29973;43.742;1.236;2023-04-08T12:49:07;28.30;33.90
44277;DHT22;29973;43.742;1.236;2023-04-08T12:51:34;29.20;33.30
44277;DHT22;29973;43.742;1.236;2023-04-08T12:54:01;29.20;30.80
44277;DHT22;29973;43.742;1.236;2023-04-08T12:56:28;28.00;31.50
44277;DHT22;29973;43.742;1.236;2023-04-08T12:58:54;29.90;30.00
44277;DHT22;29973;43.742;1.236;2023-04-08T13:01:22;30.10;32.70
44277;DHT22;29973;43.742;1.236;2023-04-08T13:03:48;30.40;30.90
44277;DHT22;29973;43.742;1.236;2023-04-08T13:06:14;31.30;29.70
44277;DHT22;29973;43.742;1.236;2023-04-08T13:08:40;31.90;28.40
44277;DHT22;29973;43.742;1.236;2023-04-08T13:11:06;31.40;28.00
44277;DHT22;29973;43.742;1.236;2023-04-08T13:13:32;30.80;28.00
44277;DHT22;29973;43.742;1.236;2023-04-08T13:15:58;29.70;25.30
44277;DHT22;29973;43.742;1.236;2023-04-08T13:18:24;30.10;28.70
44277;DHT22;29973;43.742;1.236;2023-04-08T13:20:50;30.20;28.80
44277;DHT22;29973;43.742;1.236;2023-04-08T13:23:16;29.00;27.40
44277;DHT22;29973;43.742;1.236;2023-04-08T13:25:45;28.50;27.90
44277;DHT22;29973;43.742;1.236;2023-04-08T13:28:11;28.80;28.20
44277;DHT22;29973;43.742;1.236;2023-04-08T13:30:37;30.40;25.80
44277;DHT22;29973;43.742;1.236;2023-04-08T13:33:02;30.70;26.30
44277;DHT22;29973;43.742;1.236;2023-04-08T13:35:28;31.90;25.20
44277;DHT22;29973;43.742;1.236;2023-04-08T13:37:54;29.00;23.70
44277;DHT22;29973;43.742;1.236;2023-04-08T13:40:20;27.60;27.50
44277;DHT22;29973;43.742;1.236;2023-04-08T13:42:46;27.60;29.70
44277;DHT22;29973;43.742;1.236;2023-04-08T13:45:12;28.60;29.20
44277;DHT22;29973;43.742;1.236;2023-04-08T13:47:39;29.30;27.30
44277;DHT22;29973;43.742;1.236;2023-04-08T13:50:06;29.80;26.80
44277;DHT22;29973;43.742;1.236;2023-04-08T13:52:31;30.40;25.90
44277;DHT22;29973;43.742;1.236;2023-04-08T13:54:57;29.30;24.00
44277;DHT22;29973;43.742;1.236;2023-04-08T13:57:23;30.30;28.80
44277;DHT22;29973;43.742;1.236;2023-04-08T13:59:49;30.20;25.60
44277;DHT22;29973;43.742;1.236;2023-04-08T14:02:14;31.90;23.60
44277;DHT22;29973;43.742;1.236;2023-04-08T14:04:40;30.80;23.90
44277;DHT22;29973;43.742;1.236;2023-04-08T14:07:06;28.90;21.90
44277;DHT22;29973;43.742;1.236;2023-04-08T14:09:32;29.00;21.80
44277;DHT22;29973;43.742;1.236;2023-04-08T14:11:58;26.50;21.60
44277;DHT22;29973;43.742;1.236;2023-04-08T14:14:23;26.80;22.70
44277;DHT22;29973;43.742;1.236;2023-04-08T14:16:49;30.20;23.10
44277;DHT22;29973;43.742;1.236;2023-04-08T14:19:15;31.40;19.40
44277;DHT22;29973;43.742;1.236;2023-04-08T14:21:41;31.50;21.10
44277;DHT22;29973;43.742;1.236;2023-04-08T14:24:07;32.00;20.00
44277;DHT22;29973;43.742;1.236;2023-04-08T14:26:32;31.00;19.40
44277;DHT22;29973;43.742;1.236;2023-04-08T14:29:04;32.10;20.00
44277;DHT22;29973;43.742;1.236;2023-04-08T14:31:31;29.90;21.70
44277;DHT22;29973;43.742;1.236;2023-04-08T14:33:58;31.50;21.80
44277;DHT22;29973;43.742;1.236;2023-04-08T14:36:24;32.90;18.70
44277;DHT22;29973;43.742;1.236;2023-04-08T14:38:50;32.40;19.50
44277;DHT22;29973;43.742;1.236;2023-04-08T14:41:17;32.30;22.60
44277;DHT22;29973;43.742;1.236;2023-04-08T14:43:42;31.90;18.90
44277;DHT22;29973;43.742;1.236;2023-04-08T14:46:08;33.10;20.60
44277;DHT22;29973;43.742;1.236;2023-04-08T14:48:33;31.60;20.00
44277;DHT22;29973;43.742;1.236;2023-04-08T14:50:59;28.60;22.20
44277;DHT22;29973;43.742;1.236;2023-04-08T14:53:25;30.50;20.30
44277;DHT22;29973;43.742;1.236;2023-04-08T14:55:51;30.30;18.80
44277;DHT22;29973;43.742;1.236;2023-04-08T14:58:17;31.00;18.60
44277;DHT22;29973;43.742;1.236;2023-04-08T15:00:44;30.70;15.80
44277;DHT22;29973;43.742;1.236;2023-04-08T15:03:13;31.50;18.80
44277;DHT22;29973;43.742;1.236;2023-04-08T15:05:38;32.00;17.50
44277;DHT22;29973;43.742;1.236;2023-04-08T15:08:04;32.10;17.80
44277;DHT22;29973;43.742;1.236;2023-04-08T15:10:30;33.50;17.80
44277;DHT22;29973;43.742;1.236;2023-04-08T15:12:56;33.30;16.10
44277;DHT22;29973;43.742;1.236;2023-04-08T15:15:22;34.00;15.80
44277;DHT22;29973;43.742;1.236;2023-04-08T15:17:48;32.70;16.80
44277;DHT22;29973;43.742;1.236;2023-04-08T15:20:14;30.70;20.50
44277;DHT22;29973;43.742;1.236;2023-04-08T15:22:40;32.30;17.80
44277;DHT22;29973;43.742;1.236;2023-04-08T15:25:06;32.20;16.80
44277;DHT22;29973;43.742;1.236;2023-04-08T15:27:32;30.20;17.10
44277;DHT22;29973;43.742;1.236;2023-04-08T15:29:59;31.10;15.40
44277;DHT22;29973;43.742;1.236;2023-04-08T15:32:25;32.70;17.90
44277;DHT22;29973;43.742;1.236;2023-04-08T15:34:52;33.30;15.70
44277;DHT22;29973;43.742;1.236;2023-04-08T15:37:17;33.20;15.60
44277;DHT22;29973;43.742;1.236;2023-04-08T15:39:43;31.30;17.60
44277;DHT22;29973;43.742;1.236;2023-04-08T15:42:10;31.60;16.10
44277;DHT22;29973;43.742;1.236;2023-04-08T15:44:35;31.20;16.10
44277;DHT22;29973;43.742;1.236;2023-04-08T15:47:01;32.30;16.60
44277;DHT22;29973;43.742;1.236;2023-04-08T15:49:27;32.70;14.30
44277;DHT22;29973;43.742;1.236;2023-04-08T15:51:52;32.20;14.00
44277;DHT22;29973;43.742;1.236;2023-04-08T15:54:19;31.70;15.30
44277;DHT22;29973;43.742;1.236;2023-04-08T15:56:45;31.80;15.50
44277;DHT22;29973;43.742;1.236;2023-04-08T15:59:12;30.50;15.00